Time;durP1;ratioP1;P1;durP2;ratioP2;P2;SDS_P1;SDS_P2;PMS_P1;PMS_P2;Temp;Humidity;BMP_temperature;BMP_pressure;BME280_temperature;BME280_humidity;BME280_pressure;Samples;Min_cycle;Max_cycle;Signal;HPM_P1;HPM_P2
2023/06/28 00:01:36;;;;;;;3.80;1.40;;;;;;;;;;110091;1280;22074;-88
2023/06/28 00:04:09;;;;;;;5.50;1.30;;;;;;;;;;110189;1259;22109;-87
2023/06/28 00:07:10;;;;;;;5.00;1.80;;;;;;;;;;110098;1280;22119;-88
2023/06/28 00:09:41;;;;;;;4.60;1.90;;;;;;;;;;110047;1280;21675;-88
2023/06/28 00:12:19;;;;;;;4.90;1.50;;;;;;;;;;110154;1268;22169;-87
2023/06/28 00:14:49;;;;;;;5.30;1.70;;;;;;;;;;110214;1258;22136;-87
2023/06/28 00:17:27;;;;;;;5.80;1.70;;;;;;;;;;110060;1280;22221;-87
2023/06/28 00:20:14;;;;;;;7.20;1.80;;;;;;;;;;110103;1280;22108;-87
2023/06/28 00:22:41;;;;;;;6.80;1.80;;;;;;;;;;110066;1280;22116;-88
2023/06/28 00:25:16;;;;;;;9.10;2.00;;;;;;;;;;110194;1261;22226;-88
2023/06/28 00:27:44;;;;;;;5.70;1.60;;;;;;;;;;110096;1280;22221;-88
2023/06/28 00:30:15;;;;;;;5.70;1.80;;;;;;;;;;110110;1280;22163;-88
2023/06/28 00:32:48;;;;;;;6.00;1.60;;;;;;;;;;110038;1280;22133;-88
2023/06/28 00:42:25;;;;;;;6.60;1.90;;;;;;;;;;109839;1286;23001;-87
2023/06/28 00:45:15;;;;;;;6.30;1.70;;;;;;;;;;109933;1264;22203;-88
2023/06/28 00:48:04;;;;;;;6.20;1.70;;;;;;;;;;109818;1284;22174;-85
2023/06/28 00:51:00;;;;;;;4.90;1.60;;;;;;;;;;109809;1286;22178;-87
2023/06/28 00:53:27;;;;;;;7.40;2.20;;;;;;;;;;109805;1286;22447;-86
2023/06/28 00:56:00;;;;;;;5.90;1.60;;;;;;;;;;109920;1267;22780;-87
2023/06/28 00:58:31;;;;;;;6.50;1.60;;;;;;;;;;109847;1286;22130;-87
2023/06/28 01:01:01;;;;;;;4.30;1.60;;;;;;;;;;109863;1286;21955;-87
2023/06/28 01:08:14;;;;;;;6.10;2.20;;;;;;;;;;109743;1271;22900;-86
2023/06/28 01:10:47;;;;;;;5.10;1.90;;;;;;;;;;109634;1290;22214;-86
2023/06/28 01:14:09;;;;;;;4.40;1.50;;;;;;;;;;109628;1290;22452;-86
2023/06/28 01:16:33;;;;;;;5.70;1.80;;;;;;;;;;109806;1264;22165;-87
2023/06/28 01:19:03;;;;;;;7.50;1.90;;;;;;;;;;109643;1287;22902;-86
2023/06/28 01:21:34;;;;;;;4.30;1.30;;;;;;;;;;109672;1287;22928;-88
2023/06/28 01:24:05;;;;;;;4.70;1.30;;;;;;;;;;109659;1287;23024;-87
2023/06/28 01:26:35;;;;;;;5.70;1.90;;;;;;;;;;109717;1270;22220;-87
2023/06/28 01:29:03;;;;;;;7.00;1.70;;;;;;;;;;109675;1287;22140;-87
2023/06/28 01:31:32;;;;;;;6.20;1.60;;;;;;;;;;109772;1287;22916;-86
2023/06/28 01:33:59;;;;;;;4.70;1.50;;;;;;;;;;109557;1287;22169;-87
2023/06/28 01:36:28;;;;;;;5.30;1.90;;;;;;;;;;109737;1267;22106;-88
2023/06/28 01:38:56;;;;;;;5.40;1.70;;;;;;;;;;110089;1280;22118;-88
2023/06/28 01:41:26;;;;;;;6.40;1.90;;;;;;;;;;110093;1274;22160;-86
2023/06/28 01:43:54;;;;;;;5.10;1.70;;;;;;;;;;110072;1280;22106;-86
2023/06/28 01:46:26;;;;;;;5.00;1.70;;;;;;;;;;110167;1259;22169;-86
2023/06/28 01:48:56;;;;;;;5.40;1.40;;;;;;;;;;110017;1281;22073;-87
2023/06/28 01:51:26;;;;;;;5.20;1.40;;;;;;;;;;110033;1281;22129;-88
2023/06/28 01:53:56;;;;;;;6.30;1.50;;;;;;;;;;110107;1281;22575;-87
2023/06/28 01:56:25;;;;;;;6.60;1.90;;;;;;;;;;110049;1258;22130;-86
2023/06/28 01:58:54;;;;;;;5.50;1.60;;;;;;;;;;110016;1281;22242;-86
2023/06/28 02:01:24;;;;;;;4.00;1.40;;;;;;;;;;110034;1279;22126;-86
2023/06/28 02:03:53;;;;;;;5.70;1.40;;;;;;;;;;110043;1281;22184;-86
2023/06/28 02:06:25;;;;;;;5.90;1.70;;;;;;;;;;110012;1281;22392;-86
2023/06/28 02:08:55;;;;;;;4.60;1.60;;;;;;;;;;110011;1263;22135;-87
2023/06/28 02:11:25;;;;;;;5.60;1.50;;;;;;;;;;110029;1268;22140;-85
2023/06/28 02:13:56;;;;;;;3.90;1.30;;;;;;;;;;110030;1281;22139;-88
2023/06/28 02:16:27;;;;;;;7.30;1.80;;;;;;;;;;110033;1281;22233;-88
2023/06/28 02:26:20;;;;;;;5.50;1.50;;;;;;;;;;109977;1284;22177;-85
2023/06/28 02:28:49;;;;;;;5.10;1.30;;;;;;;;;;110060;1267;22128;-87
2023/06/28 02:31:19;;;;;;;4.50;1.50;;;;;;;;;;109844;1276;22103;-86
2023/06/28 02:33:48;;;;;;;5.10;1.40;;;;;;;;;;109908;1285;22189;-85
2023/06/28 02:36:17;;;;;;;6.90;1.60;;;;;;;;;;109775;1284;22134;-86
2023/06/28 02:38:47;;;;;;;4.30;1.50;;;;;;;;;;110008;1277;22794;-86
2023/06/28 02:41:17;;;;;;;4.50;1.20;;;;;;;;;;109965;1284;22223;-88
2023/06/28 02:43:46;;;;;;;3.60;1.30;;;;;;;;;;109870;1284;22999;-87
2023/06/28 02:53:28;;;;;;;5.60;1.70;;;;;;;;;;104459;1294;545439;-92
2023/06/28 02:55:58;;;;;;;4.50;1.70;;;;;;;;;;106280;1287;25328;-89
2023/06/28 02:59:13;;;;;;;3.40;1.20;;;;;;;;;;106116;1287;22546;-89
2023/06/28 03:01:46;;;;;;;5.40;1.50;;;;;;;;;;106425;1287;25520;-90
2023/06/28 03:04:21;;;;;;;5.70;1.70;;;;;;;;;;106791;1262;23907;-93
2023/06/28 03:06:53;;;;;;;5.40;1.50;;;;;;;;;;104499;1278;2986428;-89
2023/06/28 03:09:20;;;;;;;4.60;1.10;;;;;;;;;;106983;1277;23092;-87
2023/06/28 03:12:03;;;;;;;7.00;1.30;;;;;;;;;;106948;1277;22541;-91
2023/06/28 03:14:39;;;;;;;7.00;1.30;;;;;;;;;;107101;1258;24208;-87
2023/06/28 03:17:25;;;;;;;;;;;;;;;;;;;;;
2023/06/28 03:20:08;;;;;;;6.10;1.30;;;;;;;;;;106937;1277;22527;-90
2023/06/28 03:22:40;;;;;;;5.20;1.50;;;;;;;;;;106951;1278;22520;-85
2023/06/28 03:25:13;;;;;;;6.00;1.80;;;;;;;;;;106898;1261;22630;-90
2023/06/28 03:27:53;;;;;;;5.50;1.80;;;;;;;;;;106863;1277;22512;-89
2023/06/28 03:30:26;;;;;;;8.10;1.90;;;;;;;;;;106849;1277;22529;-90
2023/06/28 03:33:04;;;;;;;4.40;1.50;;;;;;;;;;106933;1278;24322;-87
2023/06/28 03:35:38;;;;;;;4.40;1.40;;;;;;;;;;106880;1277;22604;-94
2023/06/28 03:38:16;;;;;;;6.00;1.40;;;;;;;;;;107085;1277;25223;-86
2023/06/28 03:40:51;;;;;;;7.30;1.80;;;;;;;;;;106959;1278;25272;-88
2023/06/28 03:43:48;;;;;;;8.30;1.80;;;;;;;;;;106965;1260;22519;-91
2023/06/28 03:46:29;;;;;;;6.50;1.60;;;;;;;;;;106839;1278;25460;-89
2023/06/28 03:49:03;;;;;;;7.20;1.90;;;;;;;;;;106898;1278;22787;-88
2023/06/28 03:51:52;;;;;;;7.80;1.50;;;;;;;;;;106913;1278;22803;-88
2023/06/28 03:54:39;;;;;;;7.10;1.70;;;;;;;;;;106941;1267;24237;-87
2023/06/28 03:57:13;;;;;;;5.50;1.70;;;;;;;;;;106920;1278;22521;-89
2023/06/28 03:59:49;;;;;;;5.20;1.70;;;;;;;;;;106927;1278;22535;-89
2023/06/28 04:02:20;;;;;;;5.10;1.40;;;;;;;;;;106971;1278;24233;-91
2023/06/28 04:05:22;;;;;;;5.10;1.30;;;;;;;;;;106669;1259;22639;-89
2023/06/28 04:07:57;;;;;;;5.00;1.70;;;;;;;;;;106856;1278;25399;-86
2023/06/28 04:10:30;;;;;;;6.80;1.50;;;;;;;;;;106910;1278;22523;-92
2023/06/28 04:12:59;;;;;;;7.30;2.00;;;;;;;;;;106894;1278;23869;-86
2023/06/28 04:15:38;;;;;;;5.10;1.60;;;;;;;;;;106895;1259;22547;-85
2023/06/28 04:18:18;;;;;;;4.40;1.40;;;;;;;;;;106891;1278;22657;-90
2023/06/28 04:20:51;;;;;;;6.20;1.50;;;;;;;;;;106942;1278;22531;-90
2023/06/28 04:23:18;;;;;;;7.10;1.60;;;;;;;;;;106670;1278;25440;-86
2023/06/28 04:26:21;;;;;;;;;;;;;;;;;;;;;
2023/06/28 04:29:24;;;;;;;6.90;1.60;;;;;;;;;;106911;1278;24237;-87
2023/06/28 04:32:01;;;;;;;5.90;1.90;;;;;;;;;;107202;1274;22521;-88
2023/06/28 04:34:34;;;;;;;7.30;1.80;;;;;;;;;;107227;1261;22686;-91
2023/06/28 04:37:31;;;;;;;5.10;1.60;;;;;;;;;;107255;1273;22552;-85
2023/06/28 04:40:03;;;;;;;5.80;1.80;;;;;;;;;;107092;1273;23280;-88
2023/06/28 04:42:46;;;;;;;7.30;1.80;;;;;;;;;;107161;1273;22524;-85
2023/06/28 04:45:46;;;;;;;;;;;;;;;;;;;;;
2023/06/28 04:48:58;;;;;;;5.50;1.40;;;;;;;;;;107230;1273;22547;-91
2023/06/28 04:51:51;;;;;;;4.20;1.50;;;;;;;;;;107242;1273;24255;-90
2023/06/28 04:54:23;;;;;;;4.40;1.50;;;;;;;;;;107102;1273;24255;-92
2023/06/28 04:57:32;;;;;;;6.10;1.40;;;;;;;;;;106956;1270;21818;-86
2023/06/28 05:00:38;;;;;;;5.20;1.10;;;;;;;;;;107260;1273;22514;-92
2023/06/28 05:03:08;;;;;;;7.00;1.70;;;;;;;;;;107243;1273;22593;-89
2023/06/28 05:05:40;;;;;;;7.40;1.20;;;;;;;;;;107258;1258;25337;-89
2023/06/28 05:08:07;;;;;;;7.30;1.60;;;;;;;;;;107162;1270;22956;-95
2023/06/28 05:10:43;;;;;;;9.10;1.70;;;;;;;;;;107287;1273;22525;-92
2023/06/28 05:13:34;;;;;;;5.70;1.50;;;;;;;;;;107220;1251;22518;-88
2023/06/28 05:16:22;;;;;;;7.80;1.70;;;;;;;;;;107262;1254;22747;-87
2023/06/28 05:18:51;;;;;;;8.20;1.70;;;;;;;;;;107108;1273;24274;-86
2023/06/28 05:21:34;;;;;;;6.60;1.50;;;;;;;;;;107046;1273;22766;-87
2023/06/28 05:24:01;;;;;;;6.60;1.40;;;;;;;;;;107130;1273;25318;-86
2023/06/28 05:26:55;;;;;;;7.90;1.40;;;;;;;;;;106982;1257;25739;-91
2023/06/28 05:29:29;;;;;;;7.80;1.80;;;;;;;;;;107125;1263;22663;-86
2023/06/28 05:32:07;;;;;;;5.80;1.30;;;;;;;;;;106915;1270;22536;-87
2023/06/28 05:34:37;;;;;;;7.70;1.80;;;;;;;;;;107185;1273;22639;-90
2023/06/28 05:37:17;;;;;;;;;;;;;;;;;;;;;
2023/06/28 05:39:44;;;;;;;8.90;2.30;;;;;;;;;;107163;1273;23037;-85
2023/06/28 05:42:27;;;;;;;8.60;1.60;;;;;;;;;;107248;1273;25287;-86
2023/06/28 05:45:45;;;;;;;;;;;;;;;;;;;;;
2023/06/28 05:48:40;;;;;;;8.00;1.80;;;;;;;;;;107198;1255;22677;-89
2023/06/28 05:51:30;;;;;;;6.40;1.70;;;;;;;;;;107085;1273;22494;-84
2023/06/28 05:54:29;;;;;;;;;;;;;;;;;;;;;
2023/06/28 05:57:05;;;;;;;10.30;2.00;;;;;;;;;;107190;1265;22595;-84
2023/06/28 05:59:43;;;;;;;9.70;2.20;;;;;;;;;;107167;1273;22524;-87
2023/06/28 06:02:42;;;;;;;5.90;1.60;;;;;;;;;;107123;1273;24359;-86
2023/06/28 06:05:31;;;;;;;8.20;1.70;;;;;;;;;;110678;1273;22254;-85
2023/06/28 06:07:58;;;;;;;7.30;1.70;;;;;;;;;;110669;1263;22884;-85
2023/06/28 06:10:56;;;;;;;4.90;1.40;;;;;;;;;;110706;1273;23055;-85
2023/06/28 06:13:25;;;;;;;6.20;1.40;;;;;;;;;;110655;1273;22133;-86
2023/06/28 06:15:52;;;;;;;6.90;1.70;;;;;;;;;;110676;1273;22308;-85
2023/06/28 06:18:27;;;;;;;6.20;1.60;;;;;;;;;;110654;1255;22211;-84
2023/06/28 06:21:05;;;;;;;6.50;1.60;;;;;;;;;;110653;1273;22108;-85
2023/06/28 06:23:35;;;;;;;4.80;1.50;;;;;;;;;;110662;1273;22141;-85
2023/06/28 06:26:05;;;;;;;6.50;1.60;;;;;;;;;;110667;1273;22108;-84
2023/06/28 06:28:32;;;;;;;6.70;1.50;;;;;;;;;;110732;1251;22204;-85
2023/06/28 06:31:04;;;;;;;6.70;1.50;;;;;;;;;;110540;1274;22089;-86
2023/06/28 06:33:42;;;;;;;7.00;1.50;;;;;;;;;;110537;1274;22877;-85
2023/06/28 06:36:11;;;;;;;6.30;1.30;;;;;;;;;;110634;1274;22467;-87
2023/06/28 06:38:41;;;;;;;3.50;1.20;;;;;;;;;;110561;1254;22212;-84
2023/06/28 06:41:21;;;;;;;9.20;1.90;;;;;;;;;;110532;1274;22114;-85
2023/06/28 06:43:48;;;;;;;6.90;1.60;;;;;;;;;;110545;1274;22810;-86
2023/06/28 06:46:16;;;;;;;5.60;1.20;;;;;;;;;;110517;1274;22108;-84
2023/06/28 06:48:43;;;;;;;7.70;1.50;;;;;;;;;;110813;1252;22802;-81
2023/06/28 06:51:12;;;;;;;6.70;1.40;;;;;;;;;;110544;1275;22474;-83
2023/06/28 06:53:45;;;;;;;6.40;1.50;;;;;;;;;;110451;1275;22466;-85
2023/06/28 06:56:38;;;;;;;8.00;1.50;;;;;;;;;;110435;1275;22112;-86
2023/06/28 06:59:24;;;;;;;6.90;1.50;;;;;;;;;;110915;1251;22148;-87
2023/06/28 07:01:51;;;;;;;10.70;1.70;;;;;;;;;;110615;1275;23120;-86
2023/06/28 07:04:27;;;;;;;8.10;1.60;;;;;;;;;;110617;1272;22136;-84
2023/06/28 07:07:08;;;;;;;4.60;1.70;;;;;;;;;;110510;1273;21945;-85
2023/06/28 07:09:49;;;;;;;10.40;1.90;;;;;;;;;;110447;1258;22100;-84
2023/06/28 07:12:24;;;;;;;7.50;1.50;;;;;;;;;;110472;1270;22123;-86
2023/06/28 07:14:51;;;;;;;5.00;1.70;;;;;;;;;;110545;1275;22827;-88
2023/06/28 07:17:18;;;;;;;8.70;1.70;;;;;;;;;;110457;1275;22885;-86
2023/06/28 07:30:58;;;;;;;6.30;1.50;;;;;;;;;;110289;1257;22180;-86
2023/06/28 07:33:25;;;;;;;7.00;1.50;;;;;;;;;;110029;1281;22123;-86
2023/06/28 07:35:55;;;;;;;6.60;1.60;;;;;;;;;;110070;1281;22150;-88
2023/06/28 07:38:35;;;;;;;7.50;1.30;;;;;;;;;;110084;1281;22220;-89
2023/06/28 07:41:08;;;;;;;7.90;1.50;;;;;;;;;;110096;1263;22235;-85
2023/06/28 07:43:35;;;;;;;6.80;1.60;;;;;;;;;;110019;1280;22923;-84
2023/06/28 07:46:03;;;;;;;6.10;1.50;;;;;;;;;;110077;1281;22219;-90
2023/06/28 07:48:30;;;;;;;6.10;1.60;;;;;;;;;;109988;1281;22132;-85
2023/06/28 07:50:57;;;;;;;7.70;1.50;;;;;;;;;;110226;1259;22943;-87
2023/06/28 07:53:24;;;;;;;7.10;1.60;;;;;;;;;;110030;1281;23058;-87
2023/06/28 07:55:51;;;;;;;5.70;1.40;;;;;;;;;;110022;1281;22168;-85
2023/06/28 07:58:19;;;;;;;8.50;1.80;;;;;;;;;;110006;1281;22026;-84
2023/06/28 08:00:51;;;;;;;5.80;1.90;;;;;;;;;;110533;1254;22152;-84
2023/06/28 08:03:26;;;;;;;5.20;1.30;;;;;;;;;;110595;1276;22765;-86
2023/06/28 08:05:53;;;;;;;6.80;1.60;;;;;;;;;;110433;1275;22146;-86
2023/06/28 08:08:19;;;;;;;6.30;1.60;;;;;;;;;;110434;1276;22088;-85
2023/06/28 08:10:52;;;;;;;6.30;1.40;;;;;;;;;;110567;1256;22317;-86
2023/06/28 08:13:19;;;;;;;5.00;1.50;;;;;;;;;;110442;1276;22918;-84
2023/06/28 08:15:46;;;;;;;5.40;1.60;;;;;;;;;;110477;1276;23016;-84
2023/06/28 08:18:15;;;;;;;4.40;1.30;;;;;;;;;;110484;1276;22094;-82
2023/06/28 08:20:47;;;;;;;8.20;1.70;;;;;;;;;;110578;1254;22190;-85
2023/06/28 08:23:14;;;;;;;5.50;1.60;;;;;;;;;;110443;1276;22160;-81
2023/06/28 08:25:40;;;;;;;5.00;1.70;;;;;;;;;;110608;1276;22807;-85
2023/06/28 08:28:07;;;;;;;6.50;1.70;;;;;;;;;;110407;1276;22103;-84
2023/06/28 08:30:34;;;;;;;7.20;1.50;;;;;;;;;;110599;1256;22280;-83
2023/06/28 08:33:02;;;;;;;6.70;1.60;;;;;;;;;;110461;1276;22770;-84
2023/06/28 08:35:29;;;;;;;7.70;1.50;;;;;;;;;;110498;1276;22931;-84
2023/06/28 08:37:58;;;;;;;6.80;1.70;;;;;;;;;;110642;1276;22107;-81
2023/06/28 08:40:29;;;;;;;6.10;1.60;;;;;;;;;;110525;1253;22862;-81
2023/06/28 08:42:58;;;;;;;6.30;1.40;;;;;;;;;;110479;1276;22107;-82
2023/06/28 08:45:26;;;;;;;7.70;1.50;;;;;;;;;;110469;1276;22343;-82
2023/06/28 08:47:56;;;;;;;10.10;1.70;;;;;;;;;;110507;1276;22145;-78
2023/06/28 08:50:24;;;;;;;6.70;1.70;;;;;;;;;;110510;1253;22007;-81
2023/06/28 08:52:51;;;;;;;6.50;1.50;;;;;;;;;;110248;1276;22129;-82
2023/06/28 08:55:21;;;;;;;8.40;1.30;;;;;;;;;;110509;1276;22079;-82
2023/06/28 08:57:48;;;;;;;8.20;1.60;;;;;;;;;;110468;1276;22950;-85
2023/06/28 09:00:15;;;;;;;6.00;1.40;;;;;;;;;;110503;1276;22183;-82
2023/06/28 09:02:43;;;;;;;5.00;1.50;;;;;;;;;;110833;1255;23017;-82
2023/06/28 09:05:11;;;;;;;6.00;1.60;;;;;;;;;;110454;1270;22206;-82
2023/06/28 09:07:40;;;;;;;6.80;1.40;;;;;;;;;;110418;1276;22836;-78
2023/06/28 09:10:08;;;;;;;9.80;1.50;;;;;;;;;;110452;1276;22137;-82
2023/06/28 09:12:38;;;;;;;6.20;1.50;;;;;;;;;;110889;1253;22178;-84
2023/06/28 09:15:11;;;;;;;6.00;1.60;;;;;;;;;;110492;1276;22308;-85
2023/06/28 09:17:41;;;;;;;6.10;1.60;;;;;;;;;;110468;1274;22204;-85
2023/06/28 09:20:16;;;;;;;9.30;1.20;;;;;;;;;;110472;1276;22778;-84
2023/06/28 09:23:04;;;;;;;4.60;1.30;;;;;;;;;;110409;1258;22126;-85
2023/06/28 09:25:33;;;;;;;7.30;1.60;;;;;;;;;;110430;1276;22834;-82
2023/06/28 09:28:05;;;;;;;6.30;1.40;;;;;;;;;;110452;1276;22857;-84
2023/06/28 09:30:51;;;;;;;6.40;1.50;;;;;;;;;;110469;1276;22099;-82
2023/06/28 09:33:18;;;;;;;5.40;1.60;;;;;;;;;;110632;1260;22730;-82
2023/06/28 09:35:58;;;;;;;3.80;1.10;;;;;;;;;;110349;1276;22131;-83
2023/06/28 09:38:25;;;;;;;7.50;1.40;;;;;;;;;;110404;1276;22813;-82
2023/06/28 09:40:56;;;;;;;5.50;1.40;;;;;;;;;;110485;1276;22105;-84
2023/06/28 09:43:23;;;;;;;10.60;1.80;;;;;;;;;;110423;1255;22115;-84
2023/06/28 09:45:52;;;;;;;5.70;1.30;;;;;;;;;;110377;1276;22147;-86
2023/06/28 09:48:21;;;;;;;6.20;1.20;;;;;;;;;;110263;1271;22383;-81
2023/06/28 09:50:51;;;;;;;3.90;1.30;;;;;;;;;;110357;1274;22142;-83
2023/06/28 09:53:21;;;;;;;4.90;1.60;;;;;;;;;;110560;1259;22116;-86
2023/06/28 09:55:49;;;;;;;5.80;1.20;;;;;;;;;;110372;1277;22225;-82
2023/06/28 09:58:17;;;;;;;5.30;1.50;;;;;;;;;;110401;1277;22131;-82
2023/06/28 10:00:48;;;;;;;7.10;1.40;;;;;;;;;;110244;1277;22148;-82
2023/06/28 10:03:20;;;;;;;7.60;1.50;;;;;;;;;;110422;1260;22143;-86
2023/06/28 10:05:47;;;;;;;4.80;1.10;;;;;;;;;;110381;1277;22111;-83
2023/06/28 10:08:28;;;;;;;6.70;1.50;;;;;;;;;;110252;1277;22694;-81
2023/06/28 10:10:58;;;;;;;5.90;0.90;;;;;;;;;;110396;1277;22736;-83
2023/06/28 10:13:29;;;;;;;7.60;1.50;;;;;;;;;;110510;1256;22121;-85
2023/06/28 10:15:59;;;;;;;8.70;1.10;;;;;;;;;;110416;1277;22791;-85
2023/06/28 10:18:26;;;;;;;6.90;1.20;;;;;;;;;;110461;1277;22201;-82
2023/06/28 10:20:54;;;;;;;5.60;1.20;;;;;;;;;;110396;1277;22806;-83
2023/06/28 10:23:22;;;;;;;5.10;1.40;;;;;;;;;;110493;1259;22124;-82
2023/06/28 10:26:01;;;;;;;4.90;1.20;;;;;;;;;;110420;1277;22191;-83
2023/06/28 10:28:32;;;;;;;7.60;1.30;;;;;;;;;;110240;1277;22093;-84
2023/06/28 10:31:08;;;;;;;7.20;1.20;;;;;;;;;;110207;1277;22188;-84
2023/06/28 10:33:38;;;;;;;7.50;1.40;;;;;;;;;;110507;1259;22162;-82
2023/06/28 10:36:10;;;;;;;4.70;1.10;;;;;;;;;;110380;1277;22362;-85
2023/06/28 10:38:38;;;;;;;7.00;1.40;;;;;;;;;;110216;1277;22324;-85
2023/06/28 10:41:05;;;;;;;3.70;1.00;;;;;;;;;;110394;1277;22112;-84
2023/06/28 10:43:38;;;;;;;4.60;1.00;;;;;;;;;;110561;1260;22176;-82
2023/06/28 10:46:47;;;;;;;9.90;1.70;;;;;;;;;;110339;1277;22094;-83
2023/06/28 10:49:17;;;;;;;5.80;1.30;;;;;;;;;;110343;1271;22155;-89
2023/06/28 10:51:52;;;;;;;5.30;1.30;;;;;;;;;;110224;1277;22133;-84
2023/06/28 10:54:45;;;;;;;7.10;1.20;;;;;;;;;;110762;1256;22782;-83
2023/06/28 10:57:14;;;;;;;5.40;1.20;;;;;;;;;;110435;1275;22246;-86
2023/06/28 10:59:48;;;;;;;7.40;1.50;;;;;;;;;;110413;1272;22119;-87
2023/06/28 11:02:14;;;;;;;5.30;1.40;;;;;;;;;;110351;1277;22879;-85
2023/06/28 11:05:05;;;;;;;4.90;1.00;;;;;;;;;;110640;1260;22168;-86
2023/06/28 11:07:50;;;;;;;5.50;1.30;;;;;;;;;;110347;1277;23223;-82
2023/06/28 11:10:26;;;;;;;8.30;1.60;;;;;;;;;;110154;1277;22193;-85
2023/06/28 11:12:56;;;;;;;6.50;1.50;;;;;;;;;;110355;1277;22205;-88
2023/06/28 11:15:26;;;;;;;8.50;1.70;;;;;;;;;;110489;1260;22849;-83
2023/06/28 11:18:10;;;;;;;7.00;1.20;;;;;;;;;;110409;1277;22770;-85
2023/06/28 11:21:01;;;;;;;11.10;1.90;;;;;;;;;;110243;1277;22723;-85
2023/06/28 11:23:39;;;;;;;7.40;1.60;;;;;;;;;;110184;1254;22178;-84
2023/06/28 11:26:16;;;;;;;5.80;1.50;;;;;;;;;;110243;1277;22749;-84
2023/06/28 11:29:06;;;;;;;5.70;1.30;;;;;;;;;;110355;1277;22135;-84
2023/06/28 11:31:42;;;;;;;8.00;1.60;;;;;;;;;;110354;1277;22881;-84
2023/06/28 11:34:30;;;;;;;7.20;1.60;;;;;;;;;;110464;1259;22212;-84
2023/06/28 11:36:59;;;;;;;10.50;1.90;;;;;;;;;;110378;1277;22750;-84
2023/06/28 11:39:38;;;;;;;6.50;2.10;;;;;;;;;;110352;1272;22113;-85
2023/06/28 11:42:10;;;;;;;6.70;1.30;;;;;;;;;;110391;1277;22768;-82
2023/06/28 11:44:57;;;;;;;6.50;1.10;;;;;;;;;;110572;1258;22899;-85
2023/06/28 11:51:51;;;;;;;5.50;1.30;;;;;;;;;;109965;1279;22887;-84
2023/06/28 12:10:40;;;;;;;6.90;1.40;;;;;;;;;;103849;1292;546702;-90
2023/06/28 12:13:30;;;;;;;6.50;1.40;;;;;;;;;;106413;1287;22607;-84
2023/06/28 12:16:26;;;;;;;5.40;2.00;;;;;;;;;;106045;1283;22547;-85
2023/06/28 12:19:10;;;;;;;11.00;2.80;;;;;;;;;;106059;1287;25287;-85
2023/06/28 12:21:38;;;;;;;5.10;1.50;;;;;;;;;;106116;1280;22555;-84
2023/06/28 12:24:19;;;;;;;6.90;1.60;;;;;;;;;;103881;1285;3291811;-88
2023/06/28 12:27:07;;;;;;;7.10;1.60;;;;;;;;;;106136;1286;22564;-86
2023/06/28 12:29:38;;;;;;;6.20;1.80;;;;;;;;;;106425;1286;22575;-83
2023/06/28 12:32:05;;;;;;;6.10;1.70;;;;;;;;;;106513;1275;22593;-87
2023/06/28 12:34:38;;;;;;;6.20;1.60;;;;;;;;;;106328;1285;25599;-84
2023/06/28 12:37:09;;;;;;;6.90;1.40;;;;;;;;;;106205;1280;22541;-89
2023/06/28 12:39:42;;;;;;;5.10;1.40;;;;;;;;;;106189;1285;22642;-84
2023/06/28 12:42:32;;;;;;;;;;;;;;;;;;;;;
2023/06/28 12:45:06;;;;;;;3.80;1.40;;;;;;;;;;106465;1278;26477;-84
2023/06/28 12:47:36;;;;;;;8.10;1.50;;;;;;;;;;106827;1278;22527;-86
2023/06/28 12:50:05;;;;;;;5.90;1.50;;;;;;;;;;106958;1273;22650;-82
2023/06/28 12:52:41;;;;;;;7.80;1.40;;;;;;;;;;106728;1262;23407;-82
2023/06/28 12:55:10;;;;;;;6.40;1.70;;;;;;;;;;106621;1278;25251;-83
2023/06/28 12:57:54;;;;;;;4.70;1.60;;;;;;;;;;107241;1274;22612;-84
2023/06/28 13:00:27;;;;;;;5.80;1.30;;;;;;;;;;107077;1251;25469;-85
2023/06/28 13:03:01;;;;;;;7.60;1.60;;;;;;;;;;107248;1268;25365;-84
2023/06/28 13:05:49;;;;;;;7.60;1.90;;;;;;;;;;107312;1274;25160;-84
2023/06/28 13:08:31;;;;;;;7.00;1.80;;;;;;;;;;107007;1274;22534;-87
2023/06/28 13:11:01;;;;;;;4.80;1.70;;;;;;;;;;106930;1271;22512;-86
2023/06/28 13:13:30;;;;;;;6.40;1.50;;;;;;;;;;107103;1274;24259;-86
2023/06/28 13:15:56;;;;;;;5.20;1.70;;;;;;;;;;107150;1267;23328;-86
2023/06/28 13:18:25;;;;;;;6.70;1.60;;;;;;;;;;107344;1267;22549;-85
2023/06/28 13:21:02;;;;;;;5.40;1.40;;;;;;;;;;107123;1251;24377;-87
2023/06/28 13:23:29;;;;;;;6.80;1.70;;;;;;;;;;107127;1274;25284;-85
2023/06/28 13:26:02;;;;;;;6.10;1.60;;;;;;;;;;107145;1271;26489;-83
2023/06/28 13:28:31;;;;;;;8.20;1.80;;;;;;;;;;107409;1272;23799;-85
2023/06/28 13:30:59;;;;;;;7.40;1.80;;;;;;;;;;107267;1251;22559;-87
2023/06/28 13:33:31;;;;;;;6.10;1.40;;;;;;;;;;107005;1275;22706;-85
2023/06/28 13:38:49;;;;;;;8.10;1.80;;;;;;;;;;107193;1275;24314;-83
2023/06/28 13:41:21;;;;;;;7.80;1.70;;;;;;;;;;107065;1261;22647;-85
2023/06/28 13:43:48;;;;;;;7.50;1.60;;;;;;;;;;107172;1274;24186;-87
2023/06/28 13:46:24;;;;;;;6.80;1.70;;;;;;;;;;107057;1269;24340;-90
2023/06/28 13:48:50;;;;;;;6.00;1.70;;;;;;;;;;107012;1274;25227;-86
2023/06/28 13:51:37;;;;;;;;;;;;;;;;;;;;;
2023/06/28 13:54:03;;;;;;;5.40;1.50;;;;;;;;;;107147;1274;24200;-90
2023/06/28 13:56:33;;;;;;;6.40;1.60;;;;;;;;;;107076;1275;22543;-83
2023/06/28 13:59:22;;;;;;;8.00;1.90;;;;;;;;;;107062;1274;25269;-82
2023/06/28 14:01:49;;;;;;;6.90;1.80;;;;;;;;;;107217;1257;24225;-86
2023/06/28 14:04:18;;;;;;;5.20;1.50;;;;;;;;;;106999;1275;22551;-87
2023/06/28 14:06:50;;;;;;;6.80;1.70;;;;;;;;;;107127;1267;22576;-81
2023/06/28 14:09:19;;;;;;;6.90;1.40;;;;;;;;;;107043;1274;24445;-83
2023/06/28 14:11:51;;;;;;;5.90;1.60;;;;;;;;;;106976;1250;22534;-88
2023/06/28 14:14:24;;;;;;;6.30;1.90;;;;;;;;;;107026;1270;24365;-83
2023/06/28 14:17:18;;;;;;;6.30;1.50;;;;;;;;;;107135;1266;22524;-85
2023/06/28 14:19:45;;;;;;;5.60;1.60;;;;;;;;;;107120;1274;22653;-87
2023/06/28 14:22:14;;;;;;;9.20;1.90;;;;;;;;;;107209;1251;22590;-87
2023/06/28 14:24:49;;;;;;;7.60;1.90;;;;;;;;;;106983;1275;24453;-87
2023/06/28 14:27:23;;;;;;;6.90;1.60;;;;;;;;;;106946;1275;21868;-83
2023/06/28 14:29:59;;;;;;;8.10;1.40;;;;;;;;;;106913;1273;25208;-82
2023/06/28 14:32:50;;;;;;;5.60;1.50;;;;;;;;;;107009;1263;22523;-84
2023/06/28 14:35:42;;;;;;;5.90;1.50;;;;;;;;;;107191;1275;22533;-84
2023/06/28 14:38:21;;;;;;;9.70;1.60;;;;;;;;;;107066;1274;23299;-83
2023/06/28 14:41:09;;;;;;;6.70;1.70;;;;;;;;;;106988;1274;24035;-86
2023/06/28 14:43:39;;;;;;;5.10;1.70;;;;;;;;;;107449;1256;25284;-84
2023/06/28 14:46:15;;;;;;;5.30;1.60;;;;;;;;;;106984;1275;24286;-85
2023/06/28 14:49:17;;;;;;;;;;;;;;;;;;;;;
2023/06/28 14:51:49;;;;;;;6.10;1.90;;;;;;;;;;110592;1274;22138;-82
2023/06/28 14:54:17;;;;;;;6.30;1.70;;;;;;;;;;110557;1266;22177;-83
2023/06/28 14:56:47;;;;;;;7.50;1.70;;;;;;;;;;110521;1274;22162;-83
2023/06/28 14:59:15;;;;;;;7.40;1.60;;;;;;;;;;110634;1274;22648;-83
2023/06/28 15:01:42;;;;;;;8.40;1.70;;;;;;;;;;110604;1275;22127;-83
2023/06/28 15:04:20;;;;;;;8.00;2.00;;;;;;;;;;110786;1255;22127;-84
2023/06/28 15:06:52;;;;;;;5.40;1.80;;;;;;;;;;110623;1274;23124;-82
2023/06/28 15:09:29;;;;;;;5.70;1.70;;;;;;;;;;110621;1275;22462;-83
2023/06/28 15:11:59;;;;;;;7.00;1.50;;;;;;;;;;110571;1267;22399;-84
2023/06/28 15:14:37;;;;;;;8.20;2.00;;;;;;;;;;110631;1253;22122;-83
2023/06/28 15:17:16;;;;;;;6.70;2.10;;;;;;;;;;110547;1274;22156;-83
2023/06/28 15:19:42;;;;;;;8.40;1.90;;;;;;;;;;110523;1274;22273;-80
2023/06/28 15:22:17;;;;;;;6.40;1.60;;;;;;;;;;110581;1274;22411;-84
2023/06/28 15:25:02;;;;;;;5.30;1.60;;;;;;;;;;110609;1253;22103;-84
2023/06/28 15:27:29;;;;;;;5.00;1.70;;;;;;;;;;110578;1275;22281;-82
2023/06/28 15:29:56;;;;;;;6.10;1.50;;;;;;;;;;110527;1275;22403;-82
2023/06/28 15:32:22;;;;;;;5.70;1.60;;;;;;;;;;110466;1275;22175;-84
2023/06/28 15:34:59;;;;;;;7.20;1.80;;;;;;;;;;110550;1253;22123;-82
2023/06/28 15:37:39;;;;;;;4.60;1.20;;;;;;;;;;110482;1275;23146;-84
2023/06/28 15:40:09;;;;;;;8.20;1.80;;;;;;;;;;110608;1275;23105;-85
2023/06/28 15:42:38;;;;;;;6.20;1.60;;;;;;;;;;110620;1275;22161;-83
2023/06/28 15:45:04;;;;;;;6.50;1.70;;;;;;;;;;110556;1256;22116;-83
2023/06/28 15:47:43;;;;;;;9.20;1.70;;;;;;;;;;110428;1275;22158;-83
2023/06/28 15:50:15;;;;;;;5.50;1.50;;;;;;;;;;110538;1275;22198;-84
2023/06/28 15:52:47;;;;;;;4.60;1.50;;;;;;;;;;110578;1275;22895;-85
2023/06/28 15:56:04;;;;;;;5.70;1.80;;;;;;;;;;110578;1253;22175;-84
2023/06/28 15:58:46;;;;;;;;;;;;;;;;;;;;;
2023/06/28 16:13:13;;;;;;;;;;;;;;;;;;;;;
2023/06/28 16:17:26;;;;;;;;;;;;;;;;;;;;;
2023/06/28 16:24:23;;;;;;;5.50;1.60;;;;;;;;;;108868;1297;22179;-84
2023/06/28 16:26:54;;;;;;;5.50;1.40;;;;;;;;;;108857;1276;22222;-83
2023/06/28 16:29:20;;;;;;;4.90;1.50;;;;;;;;;;108869;1297;22151;-88
2023/06/28 16:32:00;;;;;;;6.10;1.70;;;;;;;;;;108986;1292;22458;-84
2023/06/28 16:34:57;;;;;;;7.00;1.90;;;;;;;;;;109179;1293;22185;-85
2023/06/28 16:37:36;;;;;;;3.30;1.50;;;;;;;;;;109266;1270;22171;-85
2023/06/28 16:40:14;;;;;;;6.60;1.90;;;;;;;;;;109199;1276;22188;-83
2023/06/28 16:42:55;;;;;;;5.50;1.90;;;;;;;;;;109212;1293;22045;-83
2023/06/28 16:52:42;;;;;;;5.90;1.60;;;;;;;;;;109155;1294;22193;-85
2023/06/28 16:55:08;;;;;;;5.90;1.60;;;;;;;;;;109070;1294;22200;-82